Time;durP1;ratioP1;P1;durP2;ratioP2;P2;SDS_P1;SDS_P2;PMS_P1;PMS_P2;Temp;Humidity;BMP_temperature;BMP_pressure;BME280_temperature;BME280_humidity;BME280_pressure;Samples;Min_cycle;Max_cycle;Signal;HPM_P1;HPM_P2
2022/01/28 00:01:19;;;;;;;5.82;1.40;;;20.10;50.20;;;;;;4994812;28;20085;-60
2022/01/28 00:03:44;;;;;;;3.95;1.10;;;20.10;50.20;;;;;;4994819;28;20968;-60
2022/01/28 00:06:10;;;;;;;7.82;1.35;;;20.10;50.20;;;;;;4995537;28;20504;-60
2022/01/28 00:08:35;;;;;;;4.75;0.98;;;20.10;50.20;;;;;;4994296;28;20405;-60
2022/01/28 00:11:01;;;;;;;4.15;1.05;;;20.10;50.10;;;;;;4995315;28;20064;-60
2022/01/28 00:13:34;;;;;;;4.22;1.05;;;20.00;50.10;;;;;;4994839;28;20038;-60
2022/01/28 00:19:06;;;;;;;6.30;1.48;;;20.10;50.10;;;;;;4995096;28;20058;-60
2022/01/28 00:38:05;;;;;;;4.93;1.20;;;19.90;50.00;;;;;;4994896;28;20122;-60
2022/01/28 00:40:31;;;;;;;6.50;1.60;;;19.90;50.00;;;;;;4994619;28;20089;-60
2022/01/28 00:42:57;;;;;;;5.18;1.48;;;19.90;49.90;;;;;;4994046;28;20050;-60
2022/01/28 00:45:22;;;;;;;5.60;1.35;;;19.90;49.90;;;;;;4994446;28;20050;-60
2022/01/28 00:47:48;;;;;;;5.07;1.25;;;19.90;49.90;;;;;;4994581;28;20125;-60
2022/01/28 00:50:14;;;;;;;3.85;1.13;;;19.90;49.90;;;;;;4993923;28;20053;-60
2022/01/28 00:52:40;;;;;;;4.90;1.10;;;19.90;49.90;;;;;;4994202;28;20089;-60
2022/01/28 00:55:05;;;;;;;4.32;1.10;;;19.90;50.00;;;;;;4977022;28;20053;-60
2022/01/28 00:57:31;;;;;;;4.78;1.00;;;19.90;49.90;;;;;;4993799;28;20086;-60
2022/01/28 00:59:56;;;;;;;4.03;1.42;;;19.90;50.60;;;;;;4994032;28;20050;-60
2022/01/28 01:02:22;;;;;;;6.78;1.55;;;19.90;49.90;;;;;;4994306;28;20073;-60
2022/01/28 01:04:47;;;;;;;7.80;1.45;;;19.90;49.80;;;;;;4993357;28;20050;-60
2022/01/28 01:07:13;;;;;;;7.30;1.30;;;19.80;49.80;;;;;;4994381;28;20046;-60
2022/01/28 01:09:38;;;;;;;4.47;1.13;;;19.80;49.70;;;;;;4993934;28;20078;-60
2022/01/28 01:12:04;;;;;;;6.38;1.75;;;19.80;49.70;;;;;;4993566;28;20046;-60
2022/01/28 01:14:30;;;;;;;4.75;1.20;;;19.80;49.70;;;;;;4993665;28;20053;-60
2022/01/28 01:17:27;;;;;;;6.00;1.40;;;19.80;49.70;;;;;;4976212;28;20121;-60
2022/01/28 01:19:46;;;;;;;6.75;1.58;;;19.80;49.70;;;;;;4993122;28;20086;-60
2022/01/28 01:22:12;;;;;;;6.50;1.30;;;19.80;49.70;;;;;;4994010;28;20061;-60
2022/01/28 01:24:48;;;;;;;6.55;1.20;;;19.80;49.60;;;;;;4992944;28;20125;-60
2022/01/28 01:27:13;;;;;;;6.25;1.10;;;19.70;49.60;;;;;;4993824;28;20049;-60
2022/01/28 01:29:43;;;;;;;4.63;0.80;;;19.70;49.60;;;;;;4993238;28;20042;-60
2022/01/28 01:32:13;;;;;;;5.57;1.48;;;19.70;49.60;;;;;;4992982;28;20407;-60
2022/01/28 01:34:39;;;;;;;4.80;1.15;;;19.70;49.50;;;;;;4993492;28;20046;-60
2022/01/28 01:37:04;;;;;;;4.78;1.10;;;19.70;49.50;;;;;;4993660;28;20053;-60
2022/01/28 01:39:34;;;;;;;6.30;1.20;;;19.70;50.20;;;;;;4992508;28;20042;-60
2022/01/28 01:42:08;;;;;;;4.88;1.33;;;19.70;49.50;;;;;;4993558;28;20483;-60
2022/01/28 01:52:52;;;;;;;6.00;1.10;;;19.60;49.30;;;;;;4993005;28;20053;-60
2022/01/28 01:55:17;;;;;;;4.20;1.00;;;19.60;49.20;;;;;;4993498;28;20054;-60
2022/01/28 01:57:43;;;;;;;8.18;0.98;;;19.60;49.20;;;;;;4993327;28;20093;-60
2022/01/28 02:00:09;;;;;;;4.63;1.13;;;19.60;49.20;;;;;;4975506;28;20134;-60
2022/01/28 02:02:35;;;;;;;4.35;1.15;;;19.50;49.10;;;;;;4992775;28;20065;-60
2022/01/28 02:05:00;;;;;;;4.63;1.10;;;19.50;49.00;;;;;;4993477;28;20043;-60
2022/01/28 02:07:27;;;;;;;6.75;1.25;;;19.60;49.00;;;;;;4992539;28;20056;-60
2022/01/28 02:09:52;;;;;;;5.80;1.25;;;19.50;48.90;;;;;;4960285;28;20046;-60
2022/01/28 02:12:18;;;;;;;3.92;1.15;;;19.50;48.90;;;;;;4993062;28;20092;-60
2022/01/28 02:14:43;;;;;;;4.70;1.05;;;19.50;48.90;;;;;;4992069;28;20084;-60
2022/01/28 02:17:09;;;;;;;5.40;1.27;;;19.50;48.90;;;;;;4992907;28;20042;-60
2022/01/28 02:19:35;;;;;;;5.50;1.55;;;19.50;48.90;;;;;;4992972;28;20050;-61
2022/01/28 02:22:01;;;;;;;6.18;1.00;;;19.50;49.00;;;;;;4992807;28;20047;-60
2022/01/28 02:24:32;;;;;;;4.88;1.20;;;19.50;48.90;;;;;;4993116;28;20497;-61
2022/01/28 02:26:58;;;;;;;5.03;1.10;;;19.50;48.90;;;;;;4993333;28;20054;-60
2022/01/28 02:29:29;;;;;;;6.53;1.25;;;19.50;48.90;;;;;;4992096;28;20034;-61
2022/01/28 02:31:56;;;;;;;5.10;1.10;;;19.50;48.90;;;;;;4993208;28;20062;-60
2022/01/28 02:34:21;;;;;;;6.22;1.30;;;19.50;48.90;;;;;;4992306;28;20536;-60
2022/01/28 02:36:47;;;;;;;4.85;1.20;;;19.40;48.80;;;;;;4992508;28;20133;-60
2022/01/28 02:39:13;;;;;;;5.55;1.13;;;19.50;48.80;;;;;;4993270;28;20116;-60
2022/01/28 02:41:42;;;;;;;4.70;1.15;;;19.50;48.80;;;;;;4991804;28;20433;-60
2022/01/28 02:44:17;;;;;;;7.35;1.20;;;19.50;48.80;;;;;;4992948;28;20057;-60
2022/01/28 02:46:55;;;;;;;4.82;0.90;;;19.50;48.80;;;;;;4992705;28;20406;-60
2022/01/28 02:49:20;;;;;;;4.70;1.10;;;19.50;48.80;;;;;;4992461;28;20069;-60
2022/01/28 02:51:46;;;;;;;4.97;1.00;;;19.50;48.80;;;;;;4994029;28;20042;-60
2022/01/28 02:54:14;;;;;;;5.72;1.15;;;19.50;48.80;;;;;;4996853;28;20050;-60
2022/01/28 02:56:47;;;;;;;6.13;1.38;;;19.50;48.90;;;;;;4995525;28;20050;-60
2022/01/28 02:59:13;;;;;;;4.05;0.98;;;19.50;48.80;;;;;;4996537;28;20042;-60
2022/01/28 03:01:38;;;;;;;6.40;1.00;;;19.50;48.80;;;;;;4995924;28;20082;-60
2022/01/28 03:04:06;;;;;;;5.00;1.38;;;19.50;48.80;;;;;;4995297;28;20046;-60
2022/01/28 03:06:31;;;;;;;5.15;1.10;;;19.50;48.70;;;;;;4995624;28;20491;-60
2022/01/28 03:09:14;;;;;;;5.97;1.25;;;19.50;48.70;;;;;;4996571;28;20084;-60
2022/01/28 03:19:41;;;;;;;3.83;1.15;;;19.60;48.60;;;;;;4995837;28;20042;-60
2022/01/28 03:22:06;;;;;;;6.82;1.20;;;19.60;48.60;;;;;;4996250;28;20100;-60
2022/01/28 03:24:32;;;;;;;5.10;1.17;;;19.60;48.60;;;;;;4977654;28;20050;-60
2022/01/28 03:27:04;;;;;;;5.93;1.25;;;19.60;48.60;;;;;;4996142;28;20046;-60
2022/01/28 03:29:29;;;;;;;4.55;1.00;;;19.60;48.60;;;;;;4995672;28;20097;-60
2022/01/28 03:31:55;;;;;;;4.90;1.20;;;19.60;48.60;;;;;;4995182;28;20495;-60
2022/01/28 03:34:20;;;;;;;6.35;1.05;;;19.60;48.60;;;;;;4996041;28;20088;-60
2022/01/28 03:36:46;;;;;;;4.47;1.15;;;19.70;48.70;;;;;;4995633;28;20050;-60
2022/01/28 03:39:11;;;;;;;3.78;1.05;;;19.70;48.60;;;;;;4995419;28;20042;-60
2022/01/28 03:41:38;;;;;;;6.20;1.25;;;19.70;48.60;;;;;;4995831;28;20050;-60
2022/01/28 03:44:03;;;;;;;6.05;1.23;;;19.70;48.60;;;;;;4995960;28;20046;-60
2022/01/28 03:46:29;;;;;;;3.88;0.95;;;19.70;48.70;;;;;;4994911;28;20065;-60
2022/01/28 03:48:55;;;;;;;4.57;1.33;;;19.70;48.70;;;;;;4995619;28;20130;-60
2022/01/28 03:51:20;;;;;;;4.68;1.08;;;19.80;48.60;;;;;;4995655;28;20042;-60
2022/01/28 03:53:46;;;;;;;5.57;0.90;;;19.70;48.50;;;;;;4994358;28;20129;-60
2022/01/28 03:56:12;;;;;;;4.97;1.38;;;19.80;48.60;;;;;;4995780;28;20053;-60
2022/01/28 03:58:37;;;;;;;3.63;1.00;;;19.80;48.70;;;;;;4995297;28;20038;-60
2022/01/28 04:01:08;;;;;;;4.90;1.17;;;19.80;48.70;;;;;;4994593;28;20053;-60
2022/01/28 04:11:26;;;;;;;4.82;1.00;;;19.80;48.60;;;;;;4994935;28;20137;-60
2022/01/28 04:11:33;;;;;;;5.50;1.33;;;19.80;48.60;;;;;;4994997;28;20042;-60
2022/01/28 04:14:09;;;;;;;7.57;1.13;;;19.80;48.60;;;;;;4994555;28;20042;-60
2022/01/28 04:19:19;;;;;;;6.30;1.35;;;19.80;48.60;;;;;;4994866;28;20482;-59
2022/01/28 04:21:44;;;;;;;6.47;1.30;;;19.80;48.50;;;;;;4994016;28;20042;-59
2022/01/28 04:24:10;;;;;;;4.63;1.08;;;19.80;48.50;;;;;;4994558;28;20125;-60
2022/01/28 04:26:35;;;;;;;4.97;1.42;;;19.80;48.50;;;;;;4994953;28;20050;-60
2022/01/28 04:29:00;;;;;;;4.72;1.15;;;19.90;48.60;;;;;;4994253;28;20042;-60
2022/01/28 04:31:26;;;;;;;7.18;1.40;;;19.90;48.50;;;;;;4994847;28;20494;-60
2022/01/28 04:33:53;;;;;;;5.22;1.45;;;19.90;48.60;;;;;;4994726;28;20085;-60
2022/01/28 04:36:20;;;;;;;7.20;1.33;;;19.90;48.60;;;;;;4995008;28;20057;-60
2022/01/28 04:39:02;;;;;;;5.10;1.40;;;19.90;48.70;;;;;;4994473;28;20081;-59
2022/01/28 04:41:40;;;;;;;5.22;1.30;;;19.90;48.60;;;;;;4993802;28;20478;-60
2022/01/28 04:44:14;;;;;;;6.93;1.40;;;19.90;48.60;;;;;;4994842;28;20050;-60
2022/01/28 04:46:50;;;;;;;7.10;1.55;;;19.90;48.60;;;;;;4994538;28;20058;-60
2022/01/28 04:49:23;;;;;;;5.57;1.38;;;19.90;48.60;;;;;;4993960;28;20150;-60
2022/01/28 04:52:15;;;;;;;4.03;1.17;;;19.90;48.50;;;;;;4994306;28;20069;-60
2022/01/28 05:02:13;;;;;;;5.50;1.33;;;19.90;48.50;;;;;;4994137;28;20062;-60
2022/01/28 05:12:59;;;;;;;5.25;1.27;;;20.00;48.70;;;;;;4994098;28;20498;-60
2022/01/28 05:28:38;;;;;;;5.65;1.23;;;20.00;48.70;;;;;;4970742;28;20084;-60
2022/01/28 05:31:04;;;;;;;4.03;1.15;;;20.10;48.70;;;;;;4992852;28;20096;-59
2022/01/28 05:33:29;;;;;;;3.95;1.08;;;20.00;48.70;;;;;;4993670;28;20042;-59
2022/01/28 05:35:55;;;;;;;7.45;1.60;;;20.00;48.70;;;;;;4993798;28;20046;-60
2022/01/28 05:38:20;;;;;;;5.93;1.25;;;20.00;48.70;;;;;;4993287;28;20046;-59
2022/01/28 05:40:46;;;;;;;6.20;1.30;;;20.00;48.70;;;;;;4993490;28;20052;-60
2022/01/28 05:43:11;;;;;;;4.25;1.30;;;20.10;48.70;;;;;;4993897;28;20532;-59
2022/01/28 05:45:37;;;;;;;5.47;1.23;;;20.10;48.70;;;;;;4992294;28;20450;-59
2022/01/28 05:48:03;;;;;;;6.72;1.65;;;20.10;48.70;;;;;;4993259;28;20053;-59
2022/01/28 05:50:28;;;;;;;6.25;1.50;;;20.10;48.70;;;;;;4993363;28;20042;-60
2022/01/28 05:52:54;;;;;;;6.10;1.30;;;20.10;48.70;;;;;;4992943;28;20053;-59
2022/01/28 05:55:19;;;;;;;6.35;1.20;;;20.10;48.70;;;;;;4993809;28;20548;-59
2022/01/28 05:57:45;;;;;;;4.63;0.90;;;20.10;48.70;;;;;;4993033;28;19926;-59
2022/01/28 06:00:11;;;;;;;8.13;1.52;;;20.10;48.70;;;;;;4992562;28;20045;-59
2022/01/28 06:02:36;;;;;;;4.50;1.20;;;20.10;48.70;;;;;;4992905;28;20062;-59
2022/01/28 06:05:02;;;;;;;5.40;1.10;;;20.10;48.70;;;;;;4993499;28;20046;-59
2022/01/28 06:07:28;;;;;;;4.88;1.23;;;20.10;49.00;;;;;;4992340;28;20062;-59
2022/01/28 06:09:53;;;;;;;4.75;1.25;;;20.10;48.70;;;;;;4993333;28;20384;-60
2022/01/28 06:12:20;;;;;;;5.10;1.10;;;20.10;48.70;;;;;;4993388;28;20038;-59
2022/01/28 06:14:46;;;;;;;5.00;1.10;;;20.10;48.70;;;;;;4992798;28;20050;-60
2022/01/28 06:17:11;;;;;;;4.18;1.10;;;20.20;48.80;;;;;;4993110;28;20066;-60
2022/01/28 06:19:37;;;;;;;4.20;1.30;;;20.20;48.80;;;;;;4991985;28;20430;-59
2022/01/28 06:22:03;;;;;;;6.00;1.05;;;20.20;48.80;;;;;;4993360;28;20053;-60
2022/01/28 06:24:28;;;;;;;4.78;1.10;;;20.20;48.80;;;;;;4992820;28;20517;-60
2022/01/28 06:26:54;;;;;;;4.85;1.10;;;20.20;48.80;;;;;;4994298;28;20046;-60
2022/01/28 06:29:20;;;;;;;7.03;1.52;;;20.20;48.80;;;;;;4996806;28;20525;-59
2022/01/28 06:31:47;;;;;;;4.82;1.00;;;20.20;48.80;;;;;;4996792;28;20077;-59
2022/01/28 06:34:13;;;;;;;4.78;1.13;;;20.20;48.80;;;;;;4996568;28;20121;-59
2022/01/28 06:36:38;;;;;;;4.60;1.05;;;20.20;48.80;;;;;;4996515;28;20125;-59
2022/01/28 06:39:04;;;;;;;5.97;1.65;;;20.20;48.70;;;;;;4997345;28;20042;-59
2022/01/28 06:41:30;;;;;;;4.25;1.00;;;20.20;48.80;;;;;;4995757;28;20046;-60
2022/01/28 06:43:57;;;;;;;4.70;1.15;;;20.20;48.80;;;;;;4996816;28;20100;-60
2022/01/28 06:46:22;;;;;;;4.85;1.10;;;20.20;48.80;;;;;;4996981;28;20082;-60
2022/01/28 06:48:48;;;;;;;3.53;1.00;;;20.20;48.70;;;;;;4995849;28;20084;-59
2022/01/28 06:51:13;;;;;;;4.88;1.10;;;20.20;48.70;;;;;;4979345;28;20050;-60
2022/01/28 06:53:39;;;;;;;5.35;1.00;;;20.20;48.60;;;;;;4996524;28;20559;-59
2022/01/28 06:56:04;;;;;;;4.10;0.88;;;20.20;48.60;;;;;;4996020;28;20042;-60
2022/01/28 06:58:30;;;;;;;3.67;1.10;;;20.20;49.30;;;;;;4996206;28;20508;-60
2022/01/28 07:00:55;;;;;;;3.97;0.90;;;20.20;48.50;;;;;;4996597;28;20046;-61
2022/01/28 07:03:21;;;;;;;5.47;1.27;;;20.30;48.70;;;;;;4995918;28;20049;-59
2022/01/28 07:05:46;;;;;;;5.43;1.23;;;20.30;48.60;;;;;;4996349;28;20053;-60
2022/01/28 07:08:12;;;;;;;5.10;1.08;;;20.30;48.50;;;;;;4995953;28;20069;-59
2022/01/28 07:10:37;;;;;;;5.90;1.00;;;20.30;48.60;;;;;;4995602;28;20742;-59
2022/01/28 07:13:03;;;;;;;5.55;1.13;;;20.30;48.60;;;;;;4996373;28;20399;-59
2022/01/28 07:15:29;;;;;;;4.13;1.00;;;20.30;48.60;;;;;;4996045;28;20414;-59
2022/01/28 07:17:56;;;;;;;6.25;1.00;;;20.30;48.60;;;;;;4995330;28;20046;-59
2022/01/28 07:20:22;;;;;;;4.80;1.30;;;20.30;48.60;;;;;;4996472;28;20043;-59
2022/01/28 07:22:47;;;;;;;6.63;1.13;;;20.30;48.60;;;;;;4995118;28;20445;-59
2022/01/28 07:25:13;;;;;;;7.05;1.35;;;20.30;48.70;;;;;;4996150;28;20047;-59
2022/01/28 07:27:38;;;;;;;7.80;1.25;;;20.30;48.70;;;;;;4995688;28;20065;-59
2022/01/28 07:30:06;;;;;;;6.15;0.90;;;20.30;48.80;;;;;;4995717;28;20082;-59
2022/01/28 07:32:32;;;;;;;6.95;1.20;;;20.30;48.80;;;;;;4995697;28;20406;-60
2022/01/28 07:34:58;;;;;;;5.43;1.20;;;20.30;48.80;;;;;;4995599;28;20489;-59
2022/01/28 07:37:23;;;;;;;8.07;1.27;;;20.30;48.80;;;;;;4994360;28;20049;-59
2022/01/28 07:39:50;;;;;;;4.28;1.08;;;20.30;48.80;;;;;;4994026;28;20065;-59
2022/01/28 07:42:17;;;;;;;6.13;1.05;;;20.30;48.90;;;;;;4994994;28;20078;-59
2022/01/28 07:44:42;;;;;;;6.05;1.13;;;20.30;49.00;;;;;;4993986;28;20482;-59
2022/01/28 07:47:08;;;;;;;7.90;1.27;;;20.30;49.10;;;;;;4994603;28;20062;-59
2022/01/28 07:49:33;;;;;;;6.40;1.15;;;20.40;49.20;;;;;;4994531;28;20039;-59
2022/01/28 07:51:59;;;;;;;4.47;0.90;;;20.40;49.20;;;;;;4994100;28;20490;-59
2022/01/28 07:54:24;;;;;;;7.10;1.10;;;20.40;49.30;;;;;;4994633;28;20046;-59
2022/01/28 07:56:53;;;;;;;6.38;1.38;;;20.40;49.30;;;;;;4994831;28;20486;-59
2022/01/28 07:59:19;;;;;;;4.82;1.00;;;20.40;49.40;;;;;;5011177;28;20050;-60
2022/01/28 08:01:44;;;;;;;6.25;1.00;;;20.40;49.50;;;;;;5014042;28;20065;-60
2022/01/28 08:04:10;;;;;;;6.75;1.58;;;20.40;49.70;;;;;;5014900;28;20129;-60
2022/01/28 08:06:35;;;;;;;4.80;1.13;;;20.40;49.80;;;;;;5014129;28;20046;-59
2022/01/28 08:09:01;;;;;;;6.80;1.30;;;20.40;49.80;;;;;;5014973;28;20045;-59
2022/01/28 08:11:27;;;;;;;5.72;1.00;;;20.40;50.00;;;;;;5014652;28;20050;-60
2022/01/28 08:13:52;;;;;;;6.35;1.23;;;20.40;50.00;;;;;;5010008;28;20042;-60
2022/01/28 08:16:18;;;;;;;6.57;1.20;;;20.50;50.20;;;;;;4994981;28;20050;-60
2022/01/28 08:18:43;;;;;;;5.30;1.40;;;20.50;50.20;;;;;;4994788;28;20054;-60
2022/01/28 08:21:09;;;;;;;4.78;1.17;;;20.50;50.30;;;;;;4994069;28;20097;-59
2022/01/28 08:23:35;;;;;;;6.03;1.15;;;20.50;50.40;;;;;;4994847;28;20093;-59
2022/01/28 08:26:01;;;;;;;5.60;1.20;;;20.50;50.50;;;;;;4994317;28;20046;-60
2022/01/28 08:28:27;;;;;;;5.28;1.10;;;20.50;50.50;;;;;;4994892;28;20053;-60
2022/01/28 08:30:53;;;;;;;3.95;1.10;;;20.60;50.50;;;;;;5005849;28;20475;-60
2022/01/28 08:33:18;;;;;;;5.28;1.20;;;20.50;50.40;;;;;;5013441;28;20069;-60
2022/01/28 08:35:51;;;;;;;8.43;1.42;;;20.60;50.70;;;;;;5013942;28;20080;-60
2022/01/28 08:38:24;;;;;;;7.43;1.42;;;20.60;50.70;;;;;;5014053;28;20066;-59
2022/01/28 08:40:51;;;;;;;9.93;1.67;;;20.60;51.40;;;;;;5013226;28;20405;-61
2022/01/28 08:43:17;;;;;;;5.82;1.38;;;20.60;50.80;;;;;;4996179;28;20552;-60
2022/01/28 08:45:42;;;;;;;5.68;1.48;;;20.60;50.70;;;;;;5013376;28;20038;-60
2022/01/28 08:48:08;;;;;;;6.47;1.48;;;20.60;50.70;;;;;;5013240;28;20050;-60
2022/01/28 08:50:34;;;;;;;6.03;1.48;;;20.60;50.80;;;;;;5013355;28;20053;-60
2022/01/28 08:52:59;;;;;;;5.75;1.42;;;20.60;50.80;;;;;;5013632;28;20085;-60
2022/01/28 08:55:25;;;;;;;4.75;0.90;;;20.60;50.80;;;;;;4995070;28;20073;-60
2022/01/28 08:57:52;;;;;;;6.28;1.10;;;20.70;50.80;;;;;;4996147;28;20070;-60
2022/01/28 09:00:18;;;;;;;8.33;1.33;;;20.70;50.70;;;;;;5013406;28;20046;-61
2022/01/28 09:02:44;;;;;;;5.32;1.30;;;20.70;50.80;;;;;;5012362;28;20479;-60
2022/01/28 09:05:10;;;;;;;7.05;1.42;;;20.70;50.80;;;;;;5013890;28;20042;-60
2022/01/28 09:07:35;;;;;;;5.80;1.10;;;20.70;50.80;;;;;;5013059;28;20128;-58
2022/01/28 09:10:06;;;;;;;6.35;1.50;;;20.70;50.70;;;;;;5012995;28;20052;-60
2022/01/28 09:12:39;;;;;;;6.90;1.23;;;20.70;50.60;;;;;;5013134;28;20100;-61
2022/01/28 09:15:08;;;;;;;7.07;1.40;;;20.70;50.50;;;;;;5013142;28;20041;-60
2022/01/28 09:17:34;;;;;;;4.82;1.17;;;20.70;50.50;;;;;;5011962;28;20046;-60
2022/01/28 09:19:59;;;;;;;4.75;1.20;;;20.70;50.40;;;;;;5012864;28;20401;-60
2022/01/28 09:22:25;;;;;;;7.65;1.35;;;20.80;50.40;;;;;;5012538;28;20046;-59
2022/01/28 09:24:51;;;;;;;6.82;1.30;;;20.80;50.40;;;;;;5013334;28;20060;-60
2022/01/28 09:27:17;;;;;;;5.80;1.13;;;20.80;51.10;;;;;;5013017;28;20050;-60
2022/01/28 09:29:43;;;;;;;5.80;1.40;;;20.80;50.40;;;;;;5011970;28;20052;-60
2022/01/28 09:32:09;;;;;;;8.60;1.50;;;20.80;50.40;;;;;;5013375;28;20437;-60
2022/01/28 09:34:34;;;;;;;7.80;1.75;;;20.80;50.40;;;;;;5012620;28;20049;-60
2022/01/28 09:36:59;;;;;;;5.45;1.15;;;20.90;50.50;;;;;;5012605;28;20077;-59
2022/01/28 09:39:25;;;;;;;6.50;1.40;;;20.90;50.40;;;;;;5012708;28;20073;-60
2022/01/28 09:41:59;;;;;;;6.20;1.30;;;20.90;50.40;;;;;;5012526;28;20409;-59
2022/01/28 09:44:24;;;;;;;7.50;1.27;;;20.90;50.30;;;;;;5011883;28;20096;-59
2022/01/28 09:46:50;;;;;;;8.23;1.80;;;20.90;50.30;;;;;;5011518;28;20045;-60
2022/01/28 09:49:15;;;;;;;7.40;1.48;;;20.90;50.40;;;;;;5011744;28;20041;-60
2022/01/28 09:51:41;;;;;;;12.27;1.70;;;20.90;50.50;;;;;;5011912;28;20046;-60
2022/01/28 09:54:06;;;;;;;6.28;1.35;;;20.90;50.70;;;;;;4993501;28;20046;-59
2022/01/28 09:56:32;;;;;;;7.57;1.60;;;20.90;50.80;;;;;;4991617;28;20558;-59
2022/01/28 09:58:58;;;;;;;6.57;1.15;;;21.00;50.90;;;;;;5006769;28;20050;-62
2022/01/28 10:01:25;;;;;;;6.90;1.40;;;21.00;50.90;;;;;;5011761;28;20050;-59
2022/01/28 10:04:03;;;;;;;6.95;1.70;;;21.00;50.80;;;;;;4994502;28;20481;-60
2022/01/28 10:06:32;;;;;;;7.03;1.70;;;21.00;50.50;;;;;;5012114;28;20069;-59
2022/01/28 10:09:01;;;;;;;8.20;1.63;;;21.00;50.40;;;;;;5012846;28;20410;-59
2022/01/28 10:11:26;;;;;;;8.60;1.60;;;21.00;50.30;;;;;;5012537;28;20045;-60
2022/01/28 10:13:54;;;;;;;5.00;1.40;;;21.00;50.20;;;;;;5012394;28;20092;-59
2022/01/28 10:16:24;;;;;;;8.13;1.55;;;21.00;50.20;;;;;;5012917;28;20053;-60
2022/01/28 10:18:56;;;;;;;6.38;1.20;;;21.00;50.20;;;;;;5012318;28;20103;-60
2022/01/28 10:21:21;;;;;;;6.65;1.40;;;21.00;50.20;;;;;;5012894;28;20037;-59
2022/01/28 10:24:10;;;;;;;8.82;1.75;;;21.00;50.10;;;;;;5012888;28;20552;-59
2022/01/28 10:26:40;;;;;;;8.15;1.95;;;21.00;50.10;;;;;;5011698;28;20054;-59
2022/01/28 10:29:17;;;;;;;6.55;1.40;;;21.00;50.00;;;;;;5013082;28;20042;-60
2022/01/28 10:31:45;;;;;;;5.78;1.60;;;21.00;50.00;;;;;;5012755;28;20068;-60
2022/01/28 10:34:17;;;;;;;8.65;1.98;;;21.00;49.90;;;;;;5011978;28;20494;-60
2022/01/28 10:36:44;;;;;;;8.27;2.08;;;21.00;49.90;;;;;;5012573;28;20045;-59
2022/01/28 10:39:20;;;;;;;6.57;1.70;;;21.00;49.90;;;;;;5012864;28;20481;-60
2022/01/28 10:41:57;;;;;;;4.47;1.60;;;21.00;49.80;;;;;;5011876;28;20046;-60
2022/01/28 10:44:23;;;;;;;8.30;1.77;;;21.00;49.80;;;;;;5012737;28;20084;-60
2022/01/28 10:46:51;;;;;;;9.85;2.08;;;21.00;49.80;;;;;;5011676;28;20046;-60
2022/01/28 10:49:16;;;;;;;6.88;1.70;;;21.00;49.80;;;;;;5012645;28;20068;-60
2022/01/28 10:51:43;;;;;;;6.35;1.65;;;21.00;49.80;;;;;;5012097;28;20485;-60
2022/01/28 10:54:10;;;;;;;5.28;1.38;;;21.10;49.80;;;;;;5012046;28;20101;-59
2022/01/28 10:56:51;;;;;;;6.95;1.75;;;21.10;49.80;;;;;;5012453;28;20073;-59
2022/01/28 10:59:18;;;;;;;7.25;2.03;;;21.10;49.70;;;;;;5012461;28;20057;-60
2022/01/28 11:01:43;;;;;;;6.35;1.67;;;21.10;49.70;;;;;;5011284;28;20050;-60
2022/01/28 11:04:13;;;;;;;5.47;1.55;;;21.10;49.70;;;;;;5012297;28;20049;-60
2022/01/28 11:06:39;;;;;;;6.78;1.85;;;21.10;49.60;;;;;;5011670;28;20056;-60
2022/01/28 11:09:06;;;;;;;6.95;1.90;;;21.10;49.70;;;;;;5010617;28;20519;-59
2022/01/28 11:11:32;;;;;;;8.90;2.08;;;21.10;49.30;;;;;;4985315;28;20082;-60
2022/01/28 11:13:57;;;;;;;7.88;1.95;;;21.10;49.10;;;;;;4976705;28;20120;-59
2022/01/28 11:16:23;;;;;;;9.38;2.05;;;21.10;48.80;;;;;;4994774;28;20141;-59
2022/01/28 11:18:48;;;;;;;7.18;2.03;;;21.10;48.60;;;;;;4977651;28;20038;-59
2022/01/28 11:21:16;;;;;;;8.27;2.25;;;21.00;48.40;;;;;;4977835;28;20410;-59
2022/01/28 11:24:12;;;;;;;6.75;2.42;;;21.10;48.30;;;;;;4977246;28;20050;-59
2022/01/28 11:26:58;;;;;;;10.15;1.80;;;21.10;47.80;;;;;;4983182;28;20049;-59
2022/01/28 11:29:27;;;;;;;10.13;2.40;;;21.00;47.60;;;;;;4998463;28;20116;-59
2022/01/28 11:31:54;;;;;;;10.40;2.10;;;21.00;47.50;;;;;;5014856;28;20120;-59
2022/01/28 11:34:24;;;;;;;10.83;2.40;;;21.00;47.30;;;;;;5014980;28;20142;-60
2022/01/28 11:36:51;;;;;;;10.60;2.38;;;21.00;47.20;;;;;;4996501;28;20378;-59
2022/01/28 11:39:38;;;;;;;10.43;2.17;;;21.00;47.40;;;;;;5015360;28;20116;-59
2022/01/28 11:42:36;;;;;;;8.65;2.08;;;21.10;48.00;;;;;;4995262;28;20096;-59
2022/01/28 11:45:06;;;;;;;14.43;2.15;;;21.10;48.30;;;;;;4961807;28;20166;-60
2022/01/28 11:47:33;;;;;;;7.10;2.10;;;21.10;48.10;;;;;;4995242;28;20503;-60
2022/01/28 11:50:12;;;;;;;7.22;2.28;;;21.10;48.20;;;;;;4994979;28;20049;-60
2022/01/28 11:52:47;;;;;;;8.55;1.90;;;21.10;48.20;;;;;;4995632;28;20045;-60
2022/01/28 11:55:25;;;;;;;8.63;2.13;;;21.20;48.30;;;;;;4995601;28;20532;-60
2022/01/28 11:58:03;;;;;;;10.48;1.95;;;21.20;48.30;;;;;;4994606;28;20498;-60
2022/01/28 12:00:35;;;;;;;7.65;2.17;;;21.20;48.30;;;;;;4995145;28;20053;-60
2022/01/28 12:03:02;;;;;;;9.07;1.80;;;21.20;48.40;;;;;;5001728;28;20058;-59
2022/01/28 12:05:30;;;;;;;7.03;1.70;;;21.20;48.50;;;;;;5013922;28;20058;-59
2022/01/28 12:07:56;;;;;;;;;;;21.20;48.50;;;;;;5015253;28;20441;-59
2022/01/28 12:10:24;;;;;;;9.18;2.58;;;21.20;48.70;;;;;;5014987;28;20361;-60
2022/01/28 12:12:59;;;;;;;8.82;2.00;;;21.20;48.50;;;;;;5008310;28;20042;-59
2022/01/28 12:15:27;;;;;;;13.48;2.03;;;21.20;48.40;;;;;;4995147;28;20066;-59
2022/01/28 12:18:08;;;;;;;9.20;1.90;;;21.20;48.60;;;;;;5005511;28;20076;-59
2022/01/28 12:20:47;;;;;;;13.50;2.03;;;21.20;48.90;;;;;;5003815;28;20042;-59
2022/01/28 12:23:12;;;;;;;14.32;2.67;;;21.20;49.00;;;;;;5003516;28;20030;-59
2022/01/28 12:25:40;;;;;;;8.98;2.15;;;21.30;49.00;;;;;;4995083;28;20390;-59
2022/01/28 12:28:12;;;;;;;;;;;21.30;49.30;;;;;;4996860;28;20080;-58
2022/01/28 12:30:38;;;;;;;6.72;1.58;;;21.30;49.40;;;;;;5004079;28;19926;-60
2022/01/28 12:33:03;;;;;;;8.38;1.77;;;21.30;49.30;;;;;;5003024;28;20080;-59
2022/01/28 12:35:29;;;;;;;11.40;2.08;;;21.30;49.40;;;;;;5004977;28;20045;-59
2022/01/28 12:38:00;;;;;;;9.45;1.95;;;21.30;49.40;;;;;;5002557;28;20045;-59
2022/01/28 12:40:35;;;;;;;8.32;1.65;;;21.30;49.40;;;;;;5001727;28;20141;-60
2022/01/28 12:43:01;;;;;;;11.23;1.92;;;21.40;49.50;;;;;;5005245;28;20045;-59
2022/01/28 12:45:27;;;;;;;9.48;1.77;;;21.40;49.50;;;;;;5003065;28;20049;-59
2022/01/28 12:47:53;;;;;;;9.70;1.90;;;21.40;49.50;;;;;;5002956;28;20156;-58
2022/01/28 12:50:19;;;;;;;10.18;1.85;;;21.40;49.60;;;;;;5004687;28;20110;-59
2022/01/28 12:52:45;;;;;;;8.70;1.90;;;21.40;49.60;;;;;;5000688;28;20073;-59
2022/01/28 12:55:12;;;;;;;11.43;2.55;;;21.40;49.70;;;;;;4996376;28;20092;-60
2022/01/28 12:57:45;;;;;;;12.40;2.30;;;21.40;49.70;;;;;;5001761;28;20081;-59
2022/01/28 13:00:11;;;;;;;9.65;1.88;;;21.40;49.50;;;;;;5002765;28;20047;-59
2022/01/28 13:02:37;;;;;;;10.95;2.13;;;21.40;49.50;;;;;;5003357;28;20061;-58
2022/01/28 13:10:21;;;;;;;6.97;1.70;;;21.40;49.70;;;;;;5000356;28;20058;-59
2022/01/28 13:12:46;;;;;;;8.77;1.90;;;21.40;49.70;;;;;;5002859;28;20053;-59
2022/01/28 13:15:13;;;;;;;6.38;1.65;;;21.40;49.70;;;;;;5004384;28;20053;-59
2022/01/28 13:17:39;;;;;;;7.25;2.00;;;21.40;49.70;;;;;;5007246;28;20050;-59
2022/01/28 13:20:09;;;;;;;8.48;1.92;;;21.40;49.80;;;;;;5012721;28;20095;-59
2022/01/28 13:22:35;;;;;;;7.68;2.10;;;21.40;49.80;;;;;;4998587;28;20052;-59
2022/01/28 13:25:00;;;;;;;5.55;1.73;;;21.40;49.80;;;;;;5013498;28;20046;-59
2022/01/28 13:27:40;;;;;;;8.63;1.70;;;21.40;49.70;;;;;;5013278;28;20077;-59
2022/01/28 13:30:13;;;;;;;8.18;1.98;;;21.40;49.70;;;;;;5012288;28;20465;-59
2022/01/28 13:32:41;;;;;;;4.63;1.65;;;21.40;49.70;;;;;;5013371;28;20125;-59
2022/01/28 13:35:14;;;;;;;8.52;2.08;;;21.40;49.60;;;;;;5013511;28;20048;-59
2022/01/28 13:37:41;;;;;;;7.60;2.13;;;21.40;49.60;;;;;;5011816;28;20046;-58
2022/01/28 13:40:23;;;;;;;9.20;1.80;;;21.40;49.80;;;;;;5013454;28;20049;-59
2022/01/28 13:42:59;;;;;;;7.07;1.90;;;21.30;49.60;;;;;;5009208;28;20145;-58
2022/01/28 13:45:35;;;;;;;7.43;1.50;;;21.30;49.60;;;;;;5012935;28;20103;-59
2022/01/28 13:48:02;;;;;;;9.90;2.05;;;21.40;49.60;;;;;;5013392;28;20077;-59
2022/01/28 13:50:31;;;;;;;9.38;2.15;;;21.30;49.40;;;;;;5011881;28;20466;-59
2022/01/28 13:55:46;;;;;;;7.80;2.25;;;21.30;49.20;;;;;;5013010;28;20050;-59
2022/01/28 13:58:11;;;;;;;6.22;2.30;;;21.30;49.30;;;;;;5012629;28;20648;-59
2022/01/28 14:00:41;;;;;;;9.57;3.38;;;21.30;49.40;;;;;;5012849;28;20081;-58
2022/01/28 14:03:23;;;;;;;9.88;2.70;;;21.30;49.50;;;;;;5012232;28;20068;-59
2022/01/28 14:05:52;;;;;;;9.88;2.95;;;21.30;49.70;;;;;;5011754;28;20138;-58
2022/01/28 14:08:36;;;;;;;10.32;2.45;;;21.20;49.60;;;;;;5013047;28;20053;-59
2022/01/28 14:11:33;;;;;;;9.25;3.28;;;21.20;49.60;;;;;;5012375;28;20042;-59